sensor_id;sensor_type;location;lat;lon;timestamp;pressure;altitude;pressure_sealevel;temperature;humidity
19576;BME280;41589;51.196;7.074;2023-06-22T00:04:28;99179.72;;;24.06;40.59
19576;BME280;41589;51.196;7.074;2023-06-22T00:09:29;99176.41;;;24.02;40.19
19576;BME280;41589;51.196;7.074;2023-06-22T00:14:29;99184.91;;;24.07;40.00
19576;BME280;41589;51.196;7.074;2023-06-22T00:19:29;99177.72;;;24.01;40.06
19576;BME280;41589;51.196;7.074;2023-06-22T00:24:30;99173.31;;;24.00;39.79
19576;BME280;41589;51.196;7.074;2023-06-22T00:29:30;99168.44;;;23.95;40.08
19576;BME280;41589;51.196;7.074;2023-06-22T00:34:30;99177.41;;;23.91;40.20
19576;BME280;41589;51.196;7.074;2023-06-22T00:39:33;99180.41;;;23.85;40.34
19576;BME280;41589;51.196;7.074;2023-06-22T00:44:35;99181.06;;;23.92;41.08
19576;BME280;41589;51.196;7.074;2023-06-22T00:49:35;99178.31;;;23.86;41.34
19576;BME280;41589;51.196;7.074;2023-06-22T00:54:36;99171.81;;;23.85;41.69
19576;BME280;41589;51.196;7.074;2023-06-22T00:59:37;99185.50;;;23.79;41.74
19576;BME280;41589;51.196;7.074;2023-06-22T01:04:38;99173.69;;;23.70;42.35
19576;BME280;41589;51.196;7.074;2023-06-22T01:09:53;99174.84;;;23.61;42.30
19576;BME280;41589;51.196;7.074;2023-06-22T01:15:05;99176.75;;;23.58;42.62
19576;BME280;41589;51.196;7.074;2023-06-22T01:20:09;99170.88;;;23.51;42.87
19576;BME280;41589;51.196;7.074;2023-06-22T01:25:19;99171.22;;;23.47;43.07
19576;BME280;41589;51.196;7.074;2023-06-22T01:30:20;99171.53;;;23.30;43.76
19576;BME280;41589;51.196;7.074;2023-06-22T01:35:22;99152.97;;;23.31;43.69
19576;BME280;41589;51.196;7.074;2023-06-22T01:40:24;99158.41;;;23.35;43.84
19576;BME280;41589;51.196;7.074;2023-06-22T01:45:26;99154.53;;;23.32;43.56
19576;BME280;41589;51.196;7.074;2023-06-22T01:50:27;99150.22;;;23.26;44.16
19576;BME280;41589;51.196;7.074;2023-06-22T01:55:30;99153.66;;;23.24;43.97
19576;BME280;41589;51.196;7.074;2023-06-22T02:00:33;99147.69;;;23.22;44.33
19576;BME280;41589;51.196;7.074;2023-06-22T02:05:41;99141.91;;;23.09;44.75
19576;BME280;41589;51.196;7.074;2023-06-22T02:10:44;99139.53;;;22.94;44.99
19576;BME280;41589;51.196;7.074;2023-06-22T02:15:47;99146.28;;;22.97;44.89
19576;BME280;41589;51.196;7.074;2023-06-22T02:20:47;99145.94;;;23.00;44.58
19576;BME280;41589;51.196;7.074;2023-06-22T02:25:48;99135.97;;;22.88;44.95
19576;BME280;41589;51.196;7.074;2023-06-22T02:30:48;99131.00;;;22.89;44.94
19576;BME280;41589;51.196;7.074;2023-06-22T02:35:48;99133.13;;;22.88;44.97
19576;BME280;41589;51.196;7.074;2023-06-22T02:40:49;99132.47;;;22.95;44.68
19576;BME280;41589;51.196;7.074;2023-06-22T02:45:51;99130.38;;;22.96;44.87
19576;BME280;41589;51.196;7.074;2023-06-22T02:50:52;99125.78;;;23.06;44.48
19576;BME280;41589;51.196;7.074;2023-06-22T02:55:52;99117.94;;;23.07;44.35
19576;BME280;41589;51.196;7.074;2023-06-22T03:00:53;99109.00;;;23.10;44.05
19576;BME280;41589;51.196;7.074;2023-06-22T03:05:53;99098.41;;;23.05;44.11
19576;BME280;41589;51.196;7.074;2023-06-22T03:10:56;99087.16;;;23.07;43.80
19576;BME280;41589;51.196;7.074;2023-06-22T03:15:56;99089.94;;;23.13;43.47
19576;BME280;41589;51.196;7.074;2023-06-22T03:21:00;99082.31;;;23.15;43.64
19576;BME280;41589;51.196;7.074;2023-06-22T03:26:22;99071.47;;;23.21;43.44
19576;BME280;41589;51.196;7.074;2023-06-22T03:37:23;99064.97;;;23.34;42.73
19576;BME280;41589;51.196;7.074;2023-06-22T03:42:35;99072.69;;;23.39;42.73
19576;BME280;41589;51.196;7.074;2023-06-22T03:47:42;99070.47;;;23.45;42.65
19576;BME280;41589;51.196;7.074;2023-06-22T03:52:44;99056.22;;;23.40;42.89
19576;BME280;41589;51.196;7.074;2023-06-22T03:58:03;99070.38;;;23.38;42.96
19576;BME280;41589;51.196;7.074;2023-06-22T04:03:52;99069.00;;;23.52;43.13
19576;BME280;41589;51.196;7.074;2023-06-22T04:09:14;99058.88;;;23.38;43.10
19576;BME280;41589;51.196;7.074;2023-06-22T04:14:26;99060.56;;;23.33;43.67
19576;BME280;41589;51.196;7.074;2023-06-22T04:19:32;99077.22;;;23.21;44.18
19576;BME280;41589;51.196;7.074;2023-06-22T04:25:07;99074.03;;;23.25;44.44
19576;BME280;41589;51.196;7.074;2023-06-22T04:30:08;99075.66;;;23.20;44.65
19576;BME280;41589;51.196;7.074;2023-06-22T04:35:30;99074.78;;;23.25;44.95
19576;BME280;41589;51.196;7.074;2023-06-22T04:40:57;99080.63;;;23.20;45.02
19576;BME280;41589;51.196;7.074;2023-06-22T04:45:58;99076.56;;;23.15;45.31
19576;BME280;41589;51.196;7.074;2023-06-22T04:51:03;99079.53;;;23.10;45.54
19576;BME280;41589;51.196;7.074;2023-06-22T04:56:04;99084.28;;;23.07;45.68
19576;BME280;41589;51.196;7.074;2023-06-22T05:01:05;99091.91;;;23.04;46.53
19576;BME280;41589;51.196;7.074;2023-06-22T05:06:05;99081.75;;;23.03;46.48
19576;BME280;41589;51.196;7.074;2023-06-22T05:11:06;99073.47;;;23.13;46.50
19576;BME280;41589;51.196;7.074;2023-06-22T05:16:06;99069.28;;;23.27;46.49
19576;BME280;41589;51.196;7.074;2023-06-22T05:21:48;99066.16;;;23.39;46.12
19576;BME280;41589;51.196;7.074;2023-06-22T05:27:07;99059.53;;;23.30;46.48
19576;BME280;41589;51.196;7.074;2023-06-22T05:32:29;99063.84;;;23.37;47.13
19576;BME280;41589;51.196;7.074;2023-06-22T05:37:44;99069.69;;;23.71;46.88
19576;BME280;41589;51.196;7.074;2023-06-22T05:42:45;99064.69;;;23.72;46.82
19576;BME280;41589;51.196;7.074;2023-06-22T05:47:45;99068.59;;;23.74;46.98
19576;BME280;41589;51.196;7.074;2023-06-22T05:52:52;99070.34;;;23.77;46.92
19576;BME280;41589;51.196;7.074;2023-06-22T05:58:18;99054.50;;;23.84;47.58
19576;BME280;41589;51.196;7.074;2023-06-22T06:04:03;99057.72;;;23.80;48.10
19576;BME280;41589;51.196;7.074;2023-06-22T06:09:55;99059.53;;;23.70;48.75
19576;BME280;41589;51.196;7.074;2023-06-22T06:15:16;99074.66;;;23.71;49.59
19576;BME280;41589;51.196;7.074;2023-06-22T06:20:19;99094.06;;;23.91;49.31
19576;BME280;41589;51.196;7.074;2023-06-22T06:25:47;99086.00;;;23.89;50.08
19576;BME280;41589;51.196;7.074;2023-06-22T06:30:50;99100.19;;;23.74;52.21
19576;BME280;41589;51.196;7.074;2023-06-22T06:35:59;99109.03;;;22.27;73.80
19576;BME280;41589;51.196;7.074;2023-06-22T06:47:52;99065.06;;;19.06;100.00
19576;BME280;41589;51.196;7.074;2023-06-22T06:52:53;99090.97;;;19.30;100.00
19576;BME280;41589;51.196;7.074;2023-06-22T06:57:53;99092.69;;;19.50;100.00
19576;BME280;41589;51.196;7.074;2023-06-22T07:02:53;99094.22;;;19.56;100.00
19576;BME280;41589;51.196;7.074;2023-06-22T07:07:54;99101.16;;;19.72;100.00
19576;BME280;41589;51.196;7.074;2023-06-22T07:12:54;99097.72;;;19.85;100.00
19576;BME280;41589;51.196;7.074;2023-06-22T07:17:55;99095.63;;;19.85;100.00
19576;BME280;41589;51.196;7.074;2023-06-22T07:22:55;99081.34;;;19.85;100.00
19576;BME280;41589;51.196;7.074;2023-06-22T07:28:06;99077.94;;;19.93;100.00
19576;BME280;41589;51.196;7.074;2023-06-22T07:33:07;99062.75;;;20.14;100.00
19576;BME280;41589;51.196;7.074;2023-06-22T07:38:08;99054.78;;;20.37;100.00
19576;BME280;41589;51.196;7.074;2023-06-22T07:43:09;99052.84;;;20.21;100.00
19576;BME280;41589;51.196;7.074;2023-06-22T07:48:09;99047.22;;;19.99;100.00
19576;BME280;41589;51.196;7.074;2023-06-22T07:53:10;99036.63;;;19.99;100.00
19576;BME280;41589;51.196;7.074;2023-06-22T07:58:10;99038.03;;;20.17;100.00
19576;BME280;41589;51.196;7.074;2023-06-22T08:03:23;99014.47;;;20.41;100.00
19576;BME280;41589;51.196;7.074;2023-06-22T08:08:23;99007.16;;;20.70;100.00
19576;BME280;41589;51.196;7.074;2023-06-22T08:13:26;99008.13;;;20.78;100.00
19576;BME280;41589;51.196;7.074;2023-06-22T08:18:28;99011.13;;;20.91;100.00
19576;BME280;41589;51.196;7.074;2023-06-22T08:23:28;99005.44;;;21.10;100.00
19576;BME280;41589;51.196;7.074;2023-06-22T08:28:29;99007.16;;;21.19;100.00
19576;BME280;41589;51.196;7.074;2023-06-22T08:33:32;98994.63;;;21.22;100.00
19576;BME280;41589;51.196;7.074;2023-06-22T08:38:32;98997.19;;;21.44;100.00
19576;BME280;41589;51.196;7.074;2023-06-22T08:43:36;98974.38;;;21.76;100.00
19576;BME280;41589;51.196;7.074;2023-06-22T08:48:36;98971.47;;;21.95;100.00
19576;BME280;41589;51.196;7.074;2023-06-22T08:53:45;98966.75;;;21.98;100.00
19576;BME280;41589;51.196;7.074;2023-06-22T08:58:54;98964.72;;;22.25;100.00
19576;BME280;41589;51.196;7.074;2023-06-22T09:03:54;98953.56;;;22.66;100.00
19576;BME280;41589;51.196;7.074;2023-06-22T09:08:57;98951.34;;;22.99;100.00
19576;BME280;41589;51.196;7.074;2023-06-22T09:13:59;98938.31;;;22.85;100.00
19576;BME280;41589;51.196;7.074;2023-06-22T09:19:08;98922.31;;;22.89;100.00
19576;BME280;41589;51.196;7.074;2023-06-22T09:24:15;98903.50;;;23.28;100.00
19576;BME280;41589;51.196;7.074;2023-06-22T09:41:29;98893.16;;;23.80;100.00
19576;BME280;41589;51.196;7.074;2023-06-22T09:46:29;98890.91;;;23.65;100.00
19576;BME280;41589;51.196;7.074;2023-06-22T09:51:30;98884.50;;;23.59;100.00
19576;BME280;41589;51.196;7.074;2023-06-22T09:56:30;98888.97;;;23.47;100.00
19576;BME280;41589;51.196;7.074;2023-06-22T10:01:31;98891.88;;;23.68;100.00
19576;BME280;41589;51.196;7.074;2023-06-22T10:06:34;98876.69;;;23.80;100.00
19576;BME280;41589;51.196;7.074;2023-06-22T10:11:37;98891.25;;;24.03;100.00
19576;BME280;41589;51.196;7.074;2023-06-22T10:16:37;98892.16;;;24.40;100.00
19576;BME280;41589;51.196;7.074;2023-06-22T10:21:38;98889.28;;;24.19;100.00
19576;BME280;41589;51.196;7.074;2023-06-22T10:26:38;98877.69;;;24.32;100.00
19576;BME280;41589;51.196;7.074;2023-06-22T10:31:41;98885.66;;;23.98;100.00
19576;BME280;41589;51.196;7.074;2023-06-22T10:36:41;98906.81;;;24.08;100.00
19576;BME280;41589;51.196;7.074;2023-06-22T10:41:42;98926.88;;;24.21;100.00
19576;BME280;41589;51.196;7.074;2023-06-22T10:46:45;98947.06;;;24.08;100.00
19576;BME280;41589;51.196;7.074;2023-06-22T10:51:48;98952.06;;;24.07;100.00
19576;BME280;41589;51.196;7.074;2023-06-22T10:56:51;98961.66;;;23.89;100.00
19576;BME280;41589;51.196;7.074;2023-06-22T11:01:52;98959.72;;;23.71;100.00
19576;BME280;41589;51.196;7.074;2023-06-22T11:06:52;98953.22;;;23.57;100.00
19576;BME280;41589;51.196;7.074;2023-06-22T11:11:53;98957.72;;;23.31;100.00
19576;BME280;41589;51.196;7.074;2023-06-22T11:16:53;98955.31;;;23.22;100.00
19576;BME280;41589;51.196;7.074;2023-06-22T11:22:04;98984.47;;;23.26;100.00
19576;BME280;41589;51.196;7.074;2023-06-22T11:27:14;99005.34;;;23.14;100.00
19576;BME280;41589;51.196;7.074;2023-06-22T11:38:46;98991.13;;;22.36;100.00
19576;BME280;41589;51.196;7.074;2023-06-22T11:43:46;98911.25;;;21.82;100.00
19576;BME280;41589;51.196;7.074;2023-06-22T11:48:46;98894.03;;;21.50;100.00
19576;BME280;41589;51.196;7.074;2023-06-22T11:53:53;98889.78;;;21.56;100.00
19576;BME280;41589;51.196;7.074;2023-06-22T11:58:56;98850.28;;;21.36;100.00
19576;BME280;41589;51.196;7.074;2023-06-22T12:03:58;98842.72;;;21.52;100.00
19576;BME280;41589;51.196;7.074;2023-06-22T12:09:02;98819.16;;;21.46;100.00
19576;BME280;41589;51.196;7.074;2023-06-22T12:14:04;98793.63;;;21.16;100.00
19576;BME280;41589;51.196;7.074;2023-06-22T12:19:05;98823.38;;;21.26;100.00
19576;BME280;41589;51.196;7.074;2023-06-22T12:24:05;98787.13;;;21.47;100.00
19576;BME280;41589;51.196;7.074;2023-06-22T12:29:05;98802.94;;;21.67;100.00
19576;BME280;41589;51.196;7.074;2023-06-22T12:34:06;98786.09;;;21.77;100.00
19576;BME280;41589;51.196;7.074;2023-06-22T12:39:06;98789.97;;;21.79;100.00
19576;BME280;41589;51.196;7.074;2023-06-22T12:44:07;98781.56;;;21.68;100.00
19576;BME280;41589;51.196;7.074;2023-06-22T12:49:10;98775.63;;;21.93;100.00
19576;BME280;41589;51.196;7.074;2023-06-22T12:54:11;98756.34;;;21.80;100.00
19576;BME280;41589;51.196;7.074;2023-06-22T12:59:14;98757.25;;;22.01;100.00
19576;BME280;41589;51.196;7.074;2023-06-22T13:04:17;98736.09;;;22.31;100.00
19576;BME280;41589;51.196;7.074;2023-06-22T13:09:19;98724.28;;;22.21;100.00
19576;BME280;41589;51.196;7.074;2023-06-22T13:14:19;98717.25;;;22.09;100.00
19576;BME280;41589;51.196;7.074;2023-06-22T13:19:22;98716.69;;;22.10;100.00
19576;BME280;41589;51.196;7.074;2023-06-22T13:24:41;98736.41;;;22.14;100.00
19576;BME280;41589;51.196;7.074;2023-06-22T13:29:54;98721.94;;;22.06;100.00
19576;BME280;41589;51.196;7.074;2023-06-22T13:35:23;98715.34;;;22.11;100.00
19576;BME280;41589;51.196;7.074;2023-06-22T13:40:39;98699.25;;;22.22;100.00
19576;BME280;41589;51.196;7.074;2023-06-22T13:45:49;98675.44;;;22.13;100.00
19576;BME280;41589;51.196;7.074;2023-06-22T13:51:03;98655.34;;;22.27;100.00
19576;BME280;41589;51.196;7.074;2023-06-22T13:56:50;98657.78;;;22.23;100.00
19576;BME280;41589;51.196;7.074;2023-06-22T14:01:50;98651.41;;;22.16;100.00
19576;BME280;41589;51.196;7.074;2023-06-22T14:06:54;98649.59;;;22.27;100.00
19576;BME280;41589;51.196;7.074;2023-06-22T14:11:56;98637.22;;;22.45;100.00
19576;BME280;41589;51.196;7.074;2023-06-22T14:16:56;98601.59;;;22.19;100.00
19576;BME280;41589;51.196;7.074;2023-06-22T14:21:59;98614.94;;;22.04;100.00
19576;BME280;41589;51.196;7.074;2023-06-22T14:26:59;98610.53;;;22.03;100.00
19576;BME280;41589;51.196;7.074;2023-06-22T14:32:03;98614.94;;;22.04;100.00
19576;BME280;41589;51.196;7.074;2023-06-22T14:37:07;98591.00;;;22.14;100.00
19576;BME280;41589;51.196;7.074;2023-06-22T14:42:10;98564.13;;;22.04;100.00
19576;BME280;41589;51.196;7.074;2023-06-22T14:47:10;98538.25;;;21.97;100.00
19576;BME280;41589;51.196;7.074;2023-06-22T14:52:16;98542.59;;;21.90;100.00
19576;BME280;41589;51.196;7.074;2023-06-22T14:57:17;98507.44;;;21.89;100.00
19576;BME280;41589;51.196;7.074;2023-06-22T15:02:20;98509.09;;;21.85;100.00
19576;BME280;41589;51.196;7.074;2023-06-22T15:07:20;98500.94;;;21.89;100.00
19576;BME280;41589;51.196;7.074;2023-06-22T15:12:21;98497.75;;;21.45;100.00
19576;BME280;41589;51.196;7.074;2023-06-22T15:17:21;98483.97;;;21.44;100.00
19576;BME280;41589;51.196;7.074;2023-06-22T15:22:22;98576.56;;;21.46;100.00
19576;BME280;41589;51.196;7.074;2023-06-22T15:27:24;98547.19;;;20.61;100.00
19576;BME280;41589;51.196;7.074;2023-06-22T15:32:28;98567.75;;;20.27;100.00
19576;BME280;41589;51.196;7.074;2023-06-22T15:37:29;98581.63;;;20.36;100.00
19576;BME280;41589;51.196;7.074;2023-06-22T15:42:32;98577.09;;;20.09;100.00
19576;BME280;41589;51.196;7.074;2023-06-22T15:47:33;98568.22;;;19.94;100.00
19576;BME280;41589;51.196;7.074;2023-06-22T15:53:01;98494.91;;;19.83;100.00
19576;BME280;41589;51.196;7.074;2023-06-22T16:10:30;98458.38;;;19.95;100.00
19576;BME280;41589;51.196;7.074;2023-06-22T16:15:46;98423.19;;;19.86;100.00
19576;BME280;41589;51.196;7.074;2023-06-22T16:20:58;98434.78;;;19.75;100.00
19576;BME280;41589;51.196;7.074;2023-06-22T16:25:58;98412.13;;;19.64;100.00
19576;BME280;41589;51.196;7.074;2023-06-22T16:31:01;98384.94;;;19.76;100.00
19576;BME280;41589;51.196;7.074;2023-06-22T16:36:06;98384.09;;;19.81;100.00
19576;BME280;41589;51.196;7.074;2023-06-22T16:41:07;98384.44;;;19.91;100.00
19576;BME280;41589;51.196;7.074;2023-06-22T16:46:39;98371.78;;;19.86;100.00
19576;BME280;41589;51.196;7.074;2023-06-22T16:51:50;98362.72;;;20.01;100.00
19576;BME280;41589;51.196;7.074;2023-06-22T16:56:58;98387.03;;;20.08;100.00
19576;BME280;41589;51.196;7.074;2023-06-22T17:02:05;98396.63;;;20.24;100.00
19576;BME280;41589;51.196;7.074;2023-06-22T17:07:28;98394.34;;;20.35;100.00
19576;BME280;41589;51.196;7.074;2023-06-22T17:12:37;98368.63;;;20.62;100.00
19576;BME280;41589;51.196;7.074;2023-06-22T17:17:42;98346.75;;;20.64;100.00
19576;BME280;41589;51.196;7.074;2023-06-22T17:22:55;98358.16;;;20.38;100.00
19576;BME280;41589;51.196;7.074;2023-06-22T17:28:08;98358.84;;;20.44;100.00
19576;BME280;41589;51.196;7.074;2023-06-22T17:33:15;98361.47;;;20.42;100.00
19576;BME280;41589;51.196;7.074;2023-06-22T17:38:22;98360.72;;;20.41;100.00
19576;BME280;41589;51.196;7.074;2023-06-22T17:43:23;98347.91;;;20.82;100.00
19576;BME280;41589;51.196;7.074;2023-06-22T17:48:23;98363.94;;;21.12;100.00
19576;BME280;41589;51.196;7.074;2023-06-22T17:53:26;98348.00;;;21.16;100.00
19576;BME280;41589;51.196;7.074;2023-06-22T17:58:32;98350.09;;;21.02;100.00
19576;BME280;41589;51.196;7.074;2023-06-22T18:03:42;98345.94;;;20.90;100.00
19576;BME280;41589;51.196;7.074;2023-06-22T18:08:55;98348.91;;;20.98;100.00
19576;BME280;41589;51.196;7.074;2023-06-22T18:14:12;98347.22;;;21.02;100.00
19576;BME280;41589;51.196;7.074;2023-06-22T18:19:18;98336.03;;;20.91;100.00
19576;BME280;41589;51.196;7.074;2023-06-22T18:24:30;98327.13;;;20.95;100.00
19576;BME280;41589;51.196;7.074;2023-06-22T18:29:41;98319.78;;;20.86;100.00
19576;BME280;41589;51.196;7.074;2023-06-22T18:34:47;98315.38;;;20.85;100.00
19576;BME280;41589;51.196;7.074;2023-06-22T18:39:55;98315.03;;;20.89;100.00
19576;BME280;41589;51.196;7.074;2023-06-22T18:45:07;98304.72;;;20.86;100.00
19576;BME280;41589;51.196;7.074;2023-06-22T18:50:45;98297.41;;;20.98;100.00
19576;BME280;41589;51.196;7.074;2023-06-22T18:56:16;98302.59;;;20.99;100.00
19576;BME280;41589;51.196;7.074;2023-06-22T19:01:18;98302.78;;;21.01;100.00
19576;BME280;41589;51.196;7.074;2023-06-22T19:07:01;98306.50;;;21.10;100.00
19576;BME280;41589;51.196;7.074;2023-06-22T19:12:22;98306.97;;;21.00;100.00
19576;BME280;41589;51.196;7.074;2023-06-22T19:17:23;98303.09;;;21.11;100.00
19576;BME280;41589;51.196;7.074;2023-06-22T19:22:53;98301.94;;;21.27;100.00
19576;BME280;41589;51.196;7.074;2023-06-22T19:28:33;98301.16;;;21.27;100.00
19576;BME280;41589;51.196;7.074;2023-06-22T19:33:34;98316.41;;;21.09;100.00
19576;BME280;41589;51.196;7.074;2023-06-22T19:38:45;98315.19;;;20.43;100.00
19576;BME280;41589;51.196;7.074;2023-06-22T19:43:52;98312.38;;;19.98;100.00
19576;BME280;41589;51.196;7.074;2023-06-22T19:48:53;98335.94;;;19.59;100.00
19576;BME280;41589;51.196;7.074;2023-06-22T19:54:02;98333.34;;;19.23;100.00
19576;BME280;41589;51.196;7.074;2023-06-22T19:59:14;98350.00;;;18.82;100.00
19576;BME280;41589;51.196;7.074;2023-06-22T20:04:30;98398.31;;;18.50;100.00
19576;BME280;41589;51.196;7.074;2023-06-22T20:09:36;98404.78;;;18.26;100.00
19576;BME280;41589;51.196;7.074;2023-06-22T20:14:45;98414.66;;;17.89;100.00
19576;BME280;41589;51.196;7.074;2023-06-22T20:19:55;98407.44;;;17.88;100.00
19576;BME280;41589;51.196;7.074;2023-06-22T20:24:59;98409.81;;;17.84;100.00
19576;BME280;41589;51.196;7.074;2023-06-22T20:30:14;98426.47;;;17.69;100.00
19576;BME280;41589;51.196;7.074;2023-06-22T20:35:22;98428.63;;;17.57;100.00
19576;BME280;41589;51.196;7.074;2023-06-22T20:40:32;98453.03;;;17.36;100.00
19576;BME280;41589;51.196;7.074;2023-06-22T20:45:38;98458.31;;;17.20;100.00
19576;BME280;41589;51.196;7.074;2023-06-22T20:50:45;98482.06;;;17.23;100.00
19576;BME280;41589;51.196;7.074;2023-06-22T20:55:45;98496.06;;;17.21;100.00
19576;BME280;41589;51.196;7.074;2023-06-22T21:00:49;98486.66;;;17.37;100.00
19576;BME280;41589;51.196;7.074;2023-06-22T21:05:57;98518.97;;;17.40;100.00
19576;BME280;41589;51.196;7.074;2023-06-22T21:10:58;98532.78;;;17.19;100.00
19576;BME280;41589;51.196;7.074;2023-06-22T21:16:01;98548.78;;;17.16;100.00
19576;BME280;41589;51.196;7.074;2023-06-22T21:21:05;98580.63;;;17.03;100.00
19576;BME280;41589;51.196;7.074;2023-06-22T21:26:05;98602.63;;;16.75;100.00
19576;BME280;41589;51.196;7.074;2023-06-22T21:31:06;98622.03;;;16.77;100.00
19576;BME280;41589;51.196;7.074;2023-06-22T21:36:06;98639.34;;;16.79;100.00
19576;BME280;41589;51.196;7.074;2023-06-22T21:41:08;98642.69;;;16.71;100.00
19576;BME280;41589;51.196;7.074;2023-06-22T21:46:11;98661.50;;;16.58;100.00
19576;BME280;41589;51.196;7.074;2023-06-22T21:51:11;98697.94;;;16.65;100.00
19576;BME280;41589;51.196;7.074;2023-06-22T21:56:23;98721.47;;;16.82;100.00
19576;BME280;41589;51.196;7.074;2023-06-22T22:01:26;98693.31;;;16.73;100.00
19576;BME280;41589;51.196;7.074;2023-06-22T22:06:30;98718.06;;;16.56;100.00
19576;BME280;41589;51.196;7.074;2023-06-22T22:11:30;98726.56;;;16.44;100.00
19576;BME280;41589;51.196;7.074;2023-06-22T22:16:33;98742.34;;;16.57;100.00
19576;BME280;41589;51.196;7.074;2023-06-22T22:21:35;98761.47;;;16.62;100.00
19576;BME280;41589;51.196;7.074;2023-06-22T22:26:38;98773.56;;;16.45;100.00
19576;BME280;41589;51.196;7.074;2023-06-22T22:31:49;98767.34;;;16.36;100.00
19576;BME280;41589;51.196;7.074;2023-06-22T22:36:52;98765.75;;;16.29;100.00
19576;BME280;41589;51.196;7.074;2023-06-22T22:42:08;98766.56;;;16.35;100.00
19576;BME280;41589;51.196;7.074;2023-06-22T22:47:11;98771.47;;;16.40;100.00
19576;BME280;41589;51.196;7.074;2023-06-22T22:52:12;98766.03;;;16.31;100.00
19576;BME280;41589;51.196;7.074;2023-06-22T22:57:17;98794.19;;;16.40;100.00
19576;BME280;41589;51.196;7.074;2023-06-22T23:02:20;98799.88;;;16.35;100.00
19576;BME280;41589;51.196;7.074;2023-06-22T23:07:27;98802.97;;;16.37;100.00
19576;BME280;41589;51.196;7.074;2023-06-22T23:12:30;98825.19;;;16.44;100.00
19576;BME280;41589;51.196;7.074;2023-06-22T23:17:38;98832.19;;;16.49;100.00
19576;BME280;41589;51.196;7.074;2023-06-22T23:22:44;98845.31;;;16.35;100.00
19576;BME280;41589;51.196;7.074;2023-06-22T23:28:23;98875.28;;;16.36;100.00
19576;BME280;41589;51.196;7.074;2023-06-22T23:33:48;98888.72;;;16.41;100.00
19576;BME280;41589;51.196;7.074;2023-06-22T23:39:08;98897.22;;;16.35;100.00
19576;BME280;41589;51.196;7.074;2023-06-22T23:44:13;98898.00;;;16.36;100.00
19576;BME280;41589;51.196;7.074;2023-06-22T23:55:32;98923.44;;;16.19;100.00
